createdAt,value
2023-02-18T00:04:37.496Z,100562.59
2023-02-18T00:09:39.670Z,100565.22
2023-02-18T00:14:40.500Z,100565.28
2023-02-18T00:19:42.525Z,100558.34
2023-02-18T00:24:43.200Z,100562.78
2023-02-18T00:29:43.906Z,100555.03
2023-02-18T00:34:45.935Z,100554.16
2023-02-18T00:39:46.625Z,100557.59
2023-02-18T00:44:47.622Z,100569.69
2023-02-18T00:49:49.615Z,100557.59
2023-02-18T00:54:50.405Z,100561.00
2023-02-18T00:59:51.125Z,100557.59
2023-02-18T01:04:53.700Z,100566.25
2023-02-18T01:09:54.532Z,100559.44
2023-02-18T01:14:55.429Z,100568.06
2023-02-18T01:19:57.529Z,100571.63
2023-02-18T01:24:58.217Z,100575.03
2023-02-18T01:30:00.222Z,100574.19
2023-02-18T01:35:03.498Z,100564.78
2023-02-18T01:40:05.492Z,100555.31
2023-02-18T01:45:53.185Z,100553.69
2023-02-18T01:50:58.004Z,100560.63
2023-02-18T01:56:00.598Z,100560.75
2023-02-18T02:01:01.469Z,100565.91
2023-02-18T02:06:03.520Z,100559.03
2023-02-18T02:11:13.538Z,100565.06
2023-02-18T02:16:22.844Z,100562.53
2023-02-18T02:21:57.665Z,100578.97
2023-02-18T02:27:23.018Z,100574.59
2023-02-18T02:32:44.119Z,100572.06
2023-02-18T02:37:54.358Z,100557.47
2023-02-18T02:43:10.816Z,100577.31
2023-02-18T02:48:20.335Z,100575.53
2023-02-18T02:53:26.019Z,100572.88
2023-02-18T02:58:27.029Z,100567.59
2023-02-18T03:03:50.367Z,100566.69
2023-02-18T03:08:59.079Z,100575.28
2023-02-18T03:14:10.458Z,100578.69
2023-02-18T03:19:21.789Z,100572.59
2023-02-18T03:24:28.756Z,100573.44
2023-02-18T03:29:30.884Z,100574.34
2023-02-18T03:34:35.107Z,100563.06
2023-02-18T03:39:40.250Z,100556.19
2023-02-18T03:44:40.894Z,100570.94
2023-02-18T03:49:41.697Z,100563.16
2023-02-18T03:54:43.693Z,100568.34
2023-02-18T03:59:45.055Z,100563.19
2023-02-18T04:04:45.698Z,100568.44
2023-02-18T04:09:47.725Z,100571.94
2023-02-18T04:14:48.398Z,100581.44
2023-02-18T04:19:49.291Z,100580.59
2023-02-18T04:24:51.300Z,100578.00
2023-02-18T04:29:51.984Z,100571.09
2023-02-18T04:34:52.898Z,100579.81
2023-02-18T04:39:54.898Z,100565.06
2023-02-18T04:44:55.551Z,100548.66
2023-02-18T04:49:56.311Z,100567.69
2023-02-18T04:54:58.268Z,100567.63
2023-02-18T04:59:58.911Z,100562.47
2023-02-18T05:04:59.960Z,100566.78
2023-02-18T05:10:01.967Z,100565.03
2023-02-18T05:15:02.655Z,100566.75
2023-02-18T05:20:03.840Z,100564.16
2023-02-18T05:25:06.671Z,100549.41
2023-02-18T05:30:08.700Z,100548.53
2023-02-18T05:35:09.902Z,100539.03
2023-02-18T05:40:13.416Z,100539.00
2023-02-18T05:45:14.141Z,100532.97
2023-02-18T05:50:14.838Z,100539.13
2023-02-18T05:55:16.868Z,100524.38
2023-02-18T06:00:18.683Z,100513.25
2023-02-18T06:05:19.432Z,100524.59
2023-02-18T06:10:21.403Z,100519.44
2023-02-18T06:15:22.069Z,100520.34
2023-02-18T06:20:22.692Z,100523.06
2023-02-18T06:25:24.754Z,100518.78
2023-02-18T06:30:25.408Z,100522.28
2023-02-18T06:35:26.075Z,100522.31
2023-02-18T06:40:28.149Z,100523.25
2023-02-18T06:45:28.840Z,100519.78
2023-02-18T06:50:29.488Z,100519.81
2023-02-18T06:55:31.539Z,100512.09
2023-02-18T07:00:32.696Z,100512.94
2023-02-18T07:05:33.456Z,100507.72
2023-02-18T07:10:35.504Z,100505.13
2023-02-18T07:15:36.284Z,100503.41
2023-02-18T07:20:36.958Z,100492.97
2023-02-18T07:25:38.977Z,100480.00
2023-02-18T07:30:39.797Z,100484.38
2023-02-18T07:35:40.469Z,100475.78
2023-02-18T07:40:42.465Z,100461.03
2023-02-18T07:45:43.226Z,100450.63
2023-02-18T07:50:46.021Z,100456.72
2023-02-18T07:55:51.004Z,100432.47
2023-02-18T08:00:53.565Z,100435.91
2023-02-18T08:05:54.508Z,100439.38
2023-02-18T08:11:01.036Z,100424.66
2023-02-18T08:16:03.332Z,100413.44
2023-02-18T08:21:04.097Z,100403.81
2023-02-18T08:26:06.966Z,100391.63
2023-02-18T08:31:18.517Z,100392.41
2023-02-18T08:36:19.727Z,100373.28
2023-02-18T08:41:21.752Z,100378.47
2023-02-18T08:46:25.023Z,100361.13
2023-02-18T08:51:34.325Z,100359.41
2023-02-18T08:56:36.378Z,100358.47
2023-02-18T09:01:37.126Z,100339.41
2023-02-18T09:06:39.245Z,100324.63
2023-02-18T09:11:41.356Z,100316.72
2023-02-18T09:16:42.771Z,100309.84
2023-02-18T09:21:43.710Z,100296.78
2023-02-18T09:26:45.784Z,100289.84
2023-02-18T09:31:46.757Z,100285.53
2023-02-18T09:36:47.556Z,100270.19
2023-02-18T09:41:52.538Z,100262.22
2023-02-18T09:46:57.031Z,100257.56
2023-02-18T09:52:03.190Z,100246.84
2023-02-18T09:57:07.938Z,100239.91
2023-02-18T10:02:16.988Z,100239.09
2023-02-18T10:07:27.436Z,100224.16
2023-02-18T10:12:34.998Z,100217.13
2023-02-18T10:17:38.776Z,100219.91
2023-02-18T10:22:40.228Z,100200.09
2023-02-18T10:27:42.290Z,100198.97
2023-02-18T10:32:45.718Z,100177.81
2023-02-18T10:38:03.267Z,100169.03
2023-02-18T10:43:13.798Z,100169.81
2023-02-18T10:48:25.407Z,100158.38
2023-02-18T10:53:34.858Z,100142.59
2023-02-18T10:58:42.943Z,100129.47
2023-02-18T11:03:45.858Z,100105.69
2023-02-18T11:08:48.034Z,100107.34
2023-02-18T11:13:55.809Z,100085.28
2023-02-18T11:18:56.512Z,100064.09
2023-02-18T11:23:58.649Z,100052.38
2023-02-18T11:29:04.881Z,100039.81
2023-02-18T11:34:06.027Z,100038.44
2023-02-18T11:39:14.819Z,100030.03
2023-02-18T11:44:23.195Z,100029.63
2023-02-18T11:49:26.012Z,100022.28
2023-02-18T11:54:30.104Z,99996.91
2023-02-18T11:59:35.842Z,99988.16
2023-02-18T12:04:43.897Z,99996.03
2023-02-18T12:09:48.952Z,99979.75
2023-02-18T12:14:53.012Z,99991.06
2023-02-18T12:20:37.775Z,100009.59
2023-02-18T12:25:45.027Z,99964.53
2023-02-18T12:31:07.635Z,99990.09
2023-02-18T12:36:17.554Z,99969.97
2023-02-18T12:41:34.280Z,99975.97
2023-02-18T12:46:50.135Z,99991.69
2023-02-18T12:52:02.466Z,99995.50
2023-02-18T12:57:23.312Z,99984.84
2023-02-18T13:02:44.543Z,99990.44
2023-02-18T13:07:59.866Z,99974.47
2023-02-18T13:13:04.692Z,99992.09
2023-02-18T13:18:13.615Z,99979.88
2023-02-18T13:23:19.733Z,99967.34
2023-02-18T13:28:27.498Z,99963.38
2023-02-18T13:33:38.817Z,99988.59
2023-02-18T13:38:54.109Z,99982.78
2023-02-18T13:43:55.028Z,99976.72
2023-02-18T13:49:07.082Z,99989.38
2023-02-18T13:54:19.730Z,99989.66
2023-02-18T13:59:24.599Z,99986.28
2023-02-18T14:04:55.216Z,100006.91
2023-02-18T14:09:57.096Z,99980.56
2023-02-18T14:14:59.913Z,99972.53
2023-02-18T14:20:44.496Z,100035.91
2023-02-18T14:25:55.311Z,100000.13
2023-02-18T14:30:56.217Z,99980.22
2023-02-18T14:36:09.132Z,99982.06
2023-02-18T14:41:29.590Z,99983.97
2023-02-18T14:46:40.849Z,99994.25
2023-02-18T14:51:44.435Z,99979.50
2023-02-18T14:56:55.182Z,99991.59
2023-02-18T15:01:57.418Z,100001.53
2023-02-18T15:07:05.121Z,100024.75
2023-02-18T15:12:10.274Z,100036.03
2023-02-18T15:17:16.389Z,100039.84
2023-02-18T15:22:20.091Z,100032.25
2023-02-18T15:27:23.419Z,100023.78
2023-02-18T15:32:27.922Z,100023.34
2023-02-18T15:37:32.360Z,100038.56
2023-02-18T15:42:34.995Z,100044.03
2023-02-18T15:47:35.725Z,100043.34
2023-02-18T15:52:40.074Z,100022.25
2023-02-18T15:57:42.478Z,100032.44
2023-02-18T16:02:55.827Z,100020.16
2023-02-18T16:08:02.175Z,100027.00
2023-02-18T16:13:03.737Z,100032.91
2023-02-18T16:18:07.108Z,100045.16
2023-02-18T16:23:14.065Z,100069.50
2023-02-18T16:28:19.535Z,100063.41
2023-02-18T16:33:20.207Z,100064.34
2023-02-18T16:38:25.298Z,100048.66
2023-02-18T16:43:33.123Z,100059.13
2023-02-18T16:48:36.884Z,100054.81
2023-02-18T16:53:39.928Z,100073.81
2023-02-18T16:58:40.740Z,100084.22
2023-02-18T17:03:41.420Z,100089.28
2023-02-18T17:08:43.532Z,100082.25
2023-02-18T17:13:44.216Z,100098.84
2023-02-18T17:18:45.584Z,100107.72
2023-02-18T17:23:48.483Z,100127.94
2023-02-18T17:28:49.577Z,100107.41
2023-02-18T17:33:50.425Z,100112.19
2023-02-18T17:38:52.588Z,100141.69
2023-02-18T17:43:53.626Z,100142.22
2023-02-18T17:48:54.322Z,100161.63
2023-02-18T17:53:57.028Z,100158.72
2023-02-18T17:58:57.694Z,100165.81
2023-02-18T18:03:58.441Z,100177.06
2023-02-18T18:09:00.430Z,100184.81
2023-02-18T18:14:01.367Z,100205.72
2023-02-18T18:19:02.036Z,100190.84
2023-02-18T18:24:04.911Z,100192.06
2023-02-18T18:29:05.563Z,100201.38
2023-02-18T18:34:06.440Z,100213.41
2023-02-18T18:39:08.995Z,100232.53
2023-02-18T18:44:11.865Z,100238.91
2023-02-18T18:49:12.546Z,100240.31
2023-02-18T18:54:14.596Z,100244.25
2023-02-18T18:59:15.253Z,100236.81
2023-02-18T19:04:16.034Z,100235.81
2023-02-18T19:09:18.107Z,100227.59
2023-02-18T19:14:18.822Z,100230.03
2023-02-18T19:19:21.018Z,100235.97
2023-02-18T19:24:23.082Z,100228.78
2023-02-18T19:29:23.849Z,100256.47
2023-02-18T19:34:24.728Z,100245.06
2023-02-18T19:39:26.925Z,100249.44
2023-02-18T19:44:27.609Z,100240.94
2023-02-18T19:49:29.147Z,100270.53
2023-02-18T19:54:31.312Z,100246.44
2023-02-18T19:59:32.034Z,100265.66
2023-02-18T20:04:32.829Z,100259.56
2023-02-18T20:09:34.833Z,100280.53
2023-02-18T20:14:36.145Z,100265.84
2023-02-18T20:19:36.826Z,100285.91
2023-02-18T20:24:40.120Z,100275.56
2023-02-18T20:29:40.814Z,100278.22
2023-02-18T20:34:41.510Z,100271.22
2023-02-18T20:39:43.616Z,100275.53
2023-02-18T20:44:44.740Z,100290.13
2023-02-18T20:49:46.708Z,100290.97
2023-02-18T20:54:48.791Z,100287.59
2023-02-18T20:59:49.529Z,100289.22
2023-02-18T21:04:50.238Z,100291.97
2023-02-18T21:09:52.280Z,100274.78
2023-02-18T21:14:52.993Z,100278.19
2023-02-18T21:19:53.682Z,100290.31
2023-02-18T21:24:55.706Z,100283.28
2023-02-18T21:29:59.660Z,100283.22
2023-02-18T21:35:00.398Z,100280.59
2023-02-18T21:40:02.367Z,100286.75
2023-02-18T21:45:04.312Z,100296.34
2023-02-18T21:50:05.206Z,100292.16
2023-02-18T21:55:08.467Z,100283.53
2023-02-18T22:00:19.701Z,100303.59
2023-02-18T22:05:29.245Z,100295.16
2023-02-18T22:16:16.262Z,100287.28
2023-02-18T22:21:17.180Z,100293.22
2023-02-18T22:26:18.237Z,100289.59
2023-02-18T22:31:21.840Z,100293.97
2023-02-18T22:36:24.151Z,100289.44
2023-02-18T22:41:26.371Z,100304.88
2023-02-18T22:46:29.852Z,100290.22
2023-02-18T22:51:32.425Z,100299.94
2023-02-18T22:56:33.040Z,100302.31
2023-02-18T23:01:37.076Z,100302.50
2023-02-18T23:06:38.919Z,100292.34
2023-02-18T23:11:39.515Z,100295.09
2023-02-18T23:16:58.830Z,100287.28
2023-02-18T23:21:59.588Z,100297.72
2023-02-18T23:27:00.166Z,100290.75
2023-02-18T23:32:02.474Z,100293.38
2023-02-18T23:37:03.069Z,100287.94
2023-02-18T23:42:03.699Z,100284.44
2023-02-18T23:47:05.698Z,100287.59
2023-02-18T23:52:06.451Z,100284.16
2023-02-18T23:57:07.011Z,100274.59
